Time,TemperatureF,DewpointF,PressureIn,WindDirection,WindDirectionDegrees,WindSpeedMPH,WindSpeedGustMPH,Humidity,HourlyPrecipIn,Conditions,Clouds,dailyrainin,SolarRadiationWatts/m^2,SoftwareType,DateUTC
2013-05-31 00:00:00,74.0,64.0,-100.00,South,180,8.0,-999.0,70,-99.99,,,-99.99,0.000000,,2013-05-31 04:00:00,
2013-05-31 00:33:00,74.0,64.0,-100.00,South,180,8.0,-999.0,70,-99.99,,,-99.99,0.000000,,2013-05-31 04:33:00,
2013-05-31 00:43:00,74.0,64.0,-100.00,South,180,8.0,-999.0,70,-99.99,,,-99.99,0.000000,,2013-05-31 04:43:00,
2013-05-31 00:53:00,74.0,64.0,-100.00,South,180,8.0,-999.0,70,-99.99,,,-99.99,0.000000,,2013-05-31 04:53:00,
2013-05-31 01:00:00,74.0,64.0,-100.00,South,180,9.0,-999.0,71,-99.99,,,-99.99,0.000000,,2013-05-31 05:00:00,
2013-05-31 01:32:00,74.0,64.0,-100.00,South,180,9.0,-999.0,71,-99.99,,,-99.99,0.000000,,2013-05-31 05:32:00,
2013-05-31 01:42:00,74.0,64.0,-100.00,South,180,9.0,-999.0,71,-99.99,,,-99.99,0.000000,,2013-05-31 05:42:00,
2013-05-31 01:52:00,74.0,64.0,-100.00,South,180,9.0,-999.0,71,-99.99,,,-99.99,0.000000,,2013-05-31 05:52:00,
2013-05-31 02:00:00,74.0,64.0,-100.00,South,180,11.0,-999.0,71,0.03,,,-99.99,0.000000,,2013-05-31 06:00:00,
2013-05-31 02:32:00,74.0,64.0,-100.00,South,180,11.0,-999.0,71,0.03,,,-99.99,0.000000,,2013-05-31 06:32:00,
2013-05-31 02:42:00,74.0,64.0,-100.00,South,180,11.0,-999.0,71,0.03,,,-99.99,0.000000,,2013-05-31 06:42:00,
2013-05-31 02:52:00,74.0,64.0,-100.00,South,180,11.0,-999.0,71,0.03,,,-99.99,0.000000,,2013-05-31 06:52:00,
2013-05-31 03:00:00,70.0,65.0,-100.00,South,180,11.0,-999.0,83,0.15,,,-99.99,1.160000,,2013-05-31 07:00:00,
2013-05-31 03:32:00,70.0,65.0,-100.00,South,180,11.0,-999.0,83,0.15,,,-99.99,1.160000,,2013-05-31 07:32:00,
2013-05-31 03:42:00,70.0,65.0,-100.00,South,180,11.0,-999.0,83,0.15,,,-99.99,1.160000,,2013-05-31 07:42:00,
2013-05-31 03:53:00,70.0,65.0,-100.00,South,180,11.0,-999.0,83,0.15,,,-99.99,1.160000,,2013-05-31 07:53:00,
2013-05-31 04:00:00,65.0,62.0,-100.00,SSW,202,7.0,-999.0,88,0.10,,,-99.99,0.000000,,2013-05-31 08:00:00,
2013-05-31 04:32:00,65.0,62.0,-100.00,SSW,202,7.0,-999.0,88,0.10,,,-99.99,0.000000,,2013-05-31 08:32:00,
2013-05-31 04:42:00,65.0,62.0,-100.00,SSW,202,7.0,-999.0,88,0.10,,,-99.99,0.000000,,2013-05-31 08:42:00,
2013-05-31 04:52:00,65.0,62.0,-100.00,SSW,202,7.0,-999.0,88,0.10,,,-99.99,0.000000,,2013-05-31 08:52:00,
2013-05-31 05:00:00,65.0,61.0,-100.00,SSE,157,6.0,-999.0,89,-99.99,,,-99.99,1.160000,,2013-05-31 09:00:00,
2013-05-31 05:32:00,65.0,61.0,-100.00,SSE,157,6.0,-999.0,89,-99.99,,,-99.99,1.160000,,2013-05-31 09:32:00,
2013-05-31 05:43:00,65.0,61.0,-100.00,SSE,157,6.0,-999.0,89,-99.99,,,-99.99,1.160000,,2013-05-31 09:43:00,
2013-05-31 05:53:00,65.0,61.0,-100.00,SSE,157,6.0,-999.0,89,-99.99,,,-99.99,1.160000,,2013-05-31 09:53:00,
2013-05-31 06:00:00,65.0,61.0,-100.00,SSE,157,8.0,-999.0,87,0.01,,,-99.99,1.160000,,2013-05-31 10:00:00,
2013-05-31 06:33:00,65.0,61.0,-100.00,SSE,157,8.0,-999.0,87,0.01,,,-99.99,1.160000,,2013-05-31 10:33:00,
2013-05-31 06:42:00,65.0,61.0,-100.00,SSE,157,8.0,-999.0,87,0.01,,,-99.99,1.160000,,2013-05-31 10:42:00,
2013-05-31 06:52:00,65.0,61.0,-100.00,SSE,157,8.0,-999.0,87,0.01,,,-99.99,1.160000,,2013-05-31 10:52:00,
2013-05-31 08:00:00,67.0,62.0,-100.00,South,180,12.0,-999.0,84,-99.99,,,-99.99,29.000000,,2013-05-31 12:00:00,
2013-05-31 08:32:00,67.0,62.0,-100.00,South,180,12.0,-999.0,84,-99.99,,,-99.99,29.000000,,2013-05-31 12:32:00,
2013-05-31 08:42:00,67.0,62.0,-100.00,South,180,12.0,-999.0,84,-99.99,,,-99.99,29.000000,,2013-05-31 12:42:00,
2013-05-31 08:52:00,67.0,62.0,-100.00,South,180,12.0,-999.0,84,-99.99,,,-99.99,29.000000,,2013-05-31 12:52:00,
2013-05-31 09:00:00,67.0,61.0,-100.00,South,180,9.0,-999.0,81,-99.99,,,-99.99,138.039993,,2013-05-31 13:00:00,
2013-05-31 09:32:00,67.0,61.0,-100.00,South,180,9.0,-999.0,81,-99.99,,,-99.99,138.039993,,2013-05-31 13:32:00,
2013-05-31 09:42:00,67.0,61.0,-100.00,South,180,9.0,-999.0,81,-99.99,,,-99.99,138.039993,,2013-05-31 13:42:00,
2013-05-31 09:52:00,67.0,61.0,-100.00,South,180,9.0,-999.0,81,-99.99,,,-99.99,138.039993,,2013-05-31 13:52:00,
2013-05-31 10:00:00,68.0,61.0,-100.00,SSW,202,8.0,-999.0,79,-99.99,,,-99.99,247.080002,,2013-05-31 14:00:00,
2013-05-31 10:32:00,68.0,61.0,-100.00,SSW,202,8.0,-999.0,79,-99.99,,,-99.99,247.080002,,2013-05-31 14:32:00,
2013-05-31 10:42:00,68.0,61.0,-100.00,SSW,202,8.0,-999.0,79,-99.99,,,-99.99,247.080002,,2013-05-31 14:42:00,
2013-05-31 10:52:00,68.0,61.0,-100.00,SSW,202,8.0,-999.0,79,-99.99,,,-99.99,247.080002,,2013-05-31 14:52:00,
2013-05-31 11:00:00,71.0,63.0,-100.00,SSW,202,9.0,-999.0,75,-99.99,,,-99.99,416.440002,,2013-05-31 15:00:00,
2013-05-31 11:33:00,71.0,63.0,-100.00,SSW,202,9.0,-999.0,75,-99.99,,,-99.99,416.440002,,2013-05-31 15:33:00,
2013-05-31 11:43:00,71.0,63.0,-100.00,SSW,202,9.0,-999.0,75,-99.99,,,-99.99,416.440002,,2013-05-31 15:43:00,
2013-05-31 11:53:00,71.0,63.0,-100.00,SSW,202,9.0,-999.0,75,-99.99,,,-99.99,416.440002,,2013-05-31 15:53:00,
2013-05-31 12:00:00,73.0,63.0,-100.00,SSW,202,10.0,-999.0,70,-99.99,,,-99.99,568.400024,,2013-05-31 16:00:00,
2013-05-31 12:33:00,73.0,63.0,-100.00,SSW,202,10.0,-999.0,70,-99.99,,,-99.99,568.400024,,2013-05-31 16:33:00,
2013-05-31 12:42:00,73.0,63.0,-100.00,SSW,202,10.0,-999.0,70,-99.99,,,-99.99,568.400024,,2013-05-31 16:42:00,
2013-05-31 12:53:00,73.0,63.0,-100.00,SSW,202,10.0,-999.0,70,-99.99,,,-99.99,568.400024,,2013-05-31 16:53:00,
2013-05-31 14:00:00,74.0,63.0,-100.00,SSW,202,10.0,-999.0,68,-99.99,,,-99.99,509.239990,,2013-05-31 18:00:00,
2013-05-31 14:32:00,74.0,63.0,-100.00,SSW,202,10.0,-999.0,68,-99.99,,,-99.99,509.239990,,2013-05-31 18:32:00,
2013-05-31 14:42:00,74.0,63.0,-100.00,SSW,202,10.0,-999.0,68,-99.99,,,-99.99,509.239990,,2013-05-31 18:42:00,
2013-05-31 14:52:00,74.0,63.0,-100.00,SSW,202,10.0,-999.0,68,-99.99,,,-99.99,509.239990,,2013-05-31 18:52:00,
2013-05-31 15:00:00,75.0,63.0,-100.00,SSW,202,9.0,-999.0,66,-99.99,,,-99.99,403.679993,,2013-05-31 19:00:00,
2013-05-31 15:32:00,75.0,63.0,-100.00,SSW,202,9.0,-999.0,66,-99.99,,,-99.99,403.679993,,2013-05-31 19:32:00,
2013-05-31 15:42:00,75.0,63.0,-100.00,SSW,202,9.0,-999.0,66,-99.99,,,-99.99,403.679993,,2013-05-31 19:42:00,
2013-05-31 15:52:00,75.0,63.0,-100.00,SSW,202,9.0,-999.0,66,-99.99,,,-99.99,403.679993,,2013-05-31 19:52:00,
2013-05-31 18:00:00,76.0,63.0,-100.00,SSW,202,8.0,-999.0,65,-99.99,,,-99.99,451.239990,,2013-05-31 22:00:00,
2013-05-31 18:33:00,76.0,63.0,-100.00,SSW,202,8.0,-999.0,65,-99.99,,,-99.99,451.239990,,2013-05-31 22:33:00,
2013-05-31 18:42:00,76.0,63.0,-100.00,SSW,202,8.0,-999.0,65,-99.99,,,-99.99,451.239990,,2013-05-31 22:42:00,
2013-05-31 18:53:00,76.0,63.0,-100.00,SSW,202,8.0,-999.0,65,-99.99,,,-99.99,451.239990,,2013-05-31 22:53:00,
2013-05-31 19:00:00,74.0,63.0,-100.00,SSW,202,6.0,-999.0,68,-99.99,,,-99.99,122.959999,,2013-05-31 23:00:00,
2013-05-31 19:32:00,74.0,63.0,-100.00,SSW,202,6.0,-999.0,68,-99.99,,,-99.99,122.959999,,2013-05-31 23:32:00,
2013-05-31 19:42:00,74.0,63.0,-100.00,SSW,202,6.0,-999.0,68,-99.99,,,-99.99,122.959999,,2013-05-31 23:42:00,
2013-05-31 19:52:00,74.0,63.0,-100.00,SSW,202,6.0,-999.0,68,-99.99,,,-99.99,122.959999,,2013-05-31 23:52:00,
2013-05-31 20:00:00,73.0,64.0,-100.00,SSE,157,6.0,-999.0,73,-99.99,,,-99.99,58.000000,,2013-06-01 00:00:00,
2013-05-31 20:32:00,73.0,64.0,-100.00,SSE,157,6.0,-999.0,73,-99.99,,,-99.99,58.000000,,2013-06-01 00:32:00,
2013-05-31 20:42:00,73.0,64.0,-100.00,SSE,157,6.0,-999.0,73,-99.99,,,-99.99,58.000000,,2013-06-01 00:42:00,
2013-05-31 20:52:00,73.0,64.0,-100.00,SSE,157,6.0,-999.0,73,-99.99,,,-99.99,58.000000,,2013-06-01 00:52:00,
2013-05-31 22:00:00,72.0,64.0,-100.00,SSE,157,5.0,-999.0,78,-99.99,,,-99.99,1.160000,,2013-06-01 02:00:00,
2013-05-31 22:32:00,72.0,64.0,-100.00,SSE,157,5.0,-999.0,78,-99.99,,,-99.99,1.160000,,2013-06-01 02:32:00,
2013-05-31 22:42:00,72.0,64.0,-100.00,SSE,157,5.0,-999.0,78,-99.99,,,-99.99,1.160000,,2013-06-01 02:42:00,
2013-05-31 22:52:00,72.0,64.0,-100.00,SSE,157,5.0,-999.0,78,-99.99,,,-99.99,1.160000,,2013-06-01 02:52:00,
2013-05-31 23:00:00,70.0,63.0,-100.00,SSW,202,6.0,-999.0,77,-99.99,,,-99.99,0.000000,,2013-06-01 03:00:00,
2013-05-31 23:33:00,70.0,63.0,-100.00,SSW,202,6.0,-999.0,77,-99.99,,,-99.99,0.000000,,2013-06-01 03:33:00,
2013-05-31 23:43:00,70.0,63.0,-100.00,SSW,202,6.0,-999.0,77,-99.99,,,-99.99,0.000000,,2013-06-01 03:43:00,
2013-05-31 23:53:00,70.0,63.0,-100.00,SSW,202,6.0,-999.0,77,-99.99,,,-99.99,0.000000,,2013-06-01 03:53:00,